sensor_id;sensor_type;location;lat;lon;timestamp;temperature;humidity
37158;DHT22;23050;51.776;22.638;2023-01-08T00:01:52;1.90;99.90
37158;DHT22;23050;51.776;22.638;2023-01-08T00:04:18;1.90;99.90
37158;DHT22;23050;51.776;22.638;2023-01-08T00:06:44;1.80;99.90
37158;DHT22;23050;51.776;22.638;2023-01-08T00:09:10;1.90;99.90
37158;DHT22;23050;51.776;22.638;2023-01-08T00:11:36;1.90;99.90
37158;DHT22;23050;51.776;22.638;2023-01-08T00:14:01;1.90;99.90
37158;DHT22;23050;51.776;22.638;2023-01-08T00:16:28;1.90;99.90
37158;DHT22;23050;51.776;22.638;2023-01-08T00:18:54;1.90;99.90
37158;DHT22;23050;51.776;22.638;2023-01-08T00:21:19;1.90;99.90
37158;DHT22;23050;51.776;22.638;2023-01-08T00:23:45;2.00;99.90
37158;DHT22;23050;51.776;22.638;2023-01-08T00:26:12;2.00;99.90
37158;DHT22;23050;51.776;22.638;2023-01-08T00:28:38;2.00;99.90
37158;DHT22;23050;51.776;22.638;2023-01-08T00:31:09;2.00;99.90
37158;DHT22;23050;51.776;22.638;2023-01-08T00:33:36;2.00;99.90
37158;DHT22;23050;51.776;22.638;2023-01-08T00:36:10;2.00;99.90
37158;DHT22;23050;51.776;22.638;2023-01-08T00:38:37;2.00;99.90
37158;DHT22;23050;51.776;22.638;2023-01-08T00:41:03;2.00;99.90
37158;DHT22;23050;51.776;22.638;2023-01-08T00:43:29;2.00;99.90
37158;DHT22;23050;51.776;22.638;2023-01-08T00:45:54;2.00;99.90
37158;DHT22;23050;51.776;22.638;2023-01-08T00:48:20;2.00;99.90
37158;DHT22;23050;51.776;22.638;2023-01-08T00:50:47;2.00;99.90
37158;DHT22;23050;51.776;22.638;2023-01-08T00:53:13;2.00;99.90
37158;DHT22;23050;51.776;22.638;2023-01-08T00:55:39;2.00;99.90
37158;DHT22;23050;51.776;22.638;2023-01-08T00:58:04;2.00;99.90
37158;DHT22;23050;51.776;22.638;2023-01-08T01:00:30;2.00;99.90
37158;DHT22;23050;51.776;22.638;2023-01-08T01:02:55;2.00;99.90
37158;DHT22;23050;51.776;22.638;2023-01-08T01:05:21;2.00;99.90
37158;DHT22;23050;51.776;22.638;2023-01-08T01:07:46;2.00;99.90
37158;DHT22;23050;51.776;22.638;2023-01-08T01:10:14;2.00;99.90
37158;DHT22;23050;51.776;22.638;2023-01-08T01:12:40;2.00;99.90
37158;DHT22;23050;51.776;22.638;2023-01-08T01:15:08;2.00;99.90
37158;DHT22;23050;51.776;22.638;2023-01-08T01:17:34;2.00;99.90
37158;DHT22;23050;51.776;22.638;2023-01-08T01:20:02;2.00;99.90
37158;DHT22;23050;51.776;22.638;2023-01-08T01:22:27;2.00;99.90
37158;DHT22;23050;51.776;22.638;2023-01-08T01:24:53;2.00;99.90
37158;DHT22;23050;51.776;22.638;2023-01-08T01:27:19;2.00;99.90
37158;DHT22;23050;51.776;22.638;2023-01-08T01:29:44;2.00;99.90
37158;DHT22;23050;51.776;22.638;2023-01-08T01:32:10;2.00;99.90
37158;DHT22;23050;51.776;22.638;2023-01-08T01:34:35;2.00;99.90
37158;DHT22;23050;51.776;22.638;2023-01-08T01:37:01;2.00;99.90
37158;DHT22;23050;51.776;22.638;2023-01-08T01:39:26;2.00;99.90
37158;DHT22;23050;51.776;22.638;2023-01-08T01:41:52;2.00;99.90
37158;DHT22;23050;51.776;22.638;2023-01-08T01:47:00;2.00;99.90
37158;DHT22;23050;51.776;22.638;2023-01-08T01:49:27;2.00;99.90
37158;DHT22;23050;51.776;22.638;2023-01-08T01:51:55;1.90;99.90
37158;DHT22;23050;51.776;22.638;2023-01-08T01:54:22;1.90;99.90
37158;DHT22;23050;51.776;22.638;2023-01-08T01:56:48;1.90;99.90
37158;DHT22;23050;51.776;22.638;2023-01-08T01:59:15;1.90;99.90
37158;DHT22;23050;51.776;22.638;2023-01-08T02:01:41;1.90;99.90
37158;DHT22;23050;51.776;22.638;2023-01-08T02:04:11;1.90;99.90
37158;DHT22;23050;51.776;22.638;2023-01-08T02:09:31;1.90;99.90
37158;DHT22;23050;51.776;22.638;2023-01-08T02:12:09;1.90;99.90
37158;DHT22;23050;51.776;22.638;2023-01-08T02:17:11;1.80;99.90
37158;DHT22;23050;51.776;22.638;2023-01-08T02:19:47;1.80;99.90
37158;DHT22;23050;51.776;22.638;2023-01-08T02:28:10;1.80;99.90
37158;DHT22;23050;51.776;22.638;2023-01-08T02:30:37;1.70;99.90
37158;DHT22;23050;51.776;22.638;2023-01-08T02:33:03;1.70;99.90
37158;DHT22;23050;51.776;22.638;2023-01-08T02:35:41;1.70;99.90
37158;DHT22;23050;51.776;22.638;2023-01-08T02:38:13;1.70;99.90
37158;DHT22;23050;51.776;22.638;2023-01-08T02:40:58;1.70;99.90
37158;DHT22;23050;51.776;22.638;2023-01-08T02:43:53;1.70;99.90
37158;DHT22;23050;51.776;22.638;2023-01-08T02:46:25;1.70;99.90
37158;DHT22;23050;51.776;22.638;2023-01-08T02:49:03;1.70;99.90
37158;DHT22;23050;51.776;22.638;2023-01-08T02:51:34;1.60;99.90
37158;DHT22;23050;51.776;22.638;2023-01-08T02:54:04;1.60;99.90
37158;DHT22;23050;51.776;22.638;2023-01-08T02:56:35;1.60;99.90
37158;DHT22;23050;51.776;22.638;2023-01-08T02:59:02;1.60;99.90
37158;DHT22;23050;51.776;22.638;2023-01-08T03:01:29;1.60;99.90
37158;DHT22;23050;51.776;22.638;2023-01-08T03:03:59;1.60;99.90
37158;DHT22;23050;51.776;22.638;2023-01-08T03:06:27;1.60;99.90
37158;DHT22;23050;51.776;22.638;2023-01-08T03:08:53;1.60;99.90
37158;DHT22;23050;51.776;22.638;2023-01-08T03:11:21;1.60;99.90
37158;DHT22;23050;51.776;22.638;2023-01-08T03:14:01;1.60;99.90
37158;DHT22;23050;51.776;22.638;2023-01-08T03:19:00;1.60;99.90
37158;DHT22;23050;51.776;22.638;2023-01-08T03:21:27;1.60;99.90
37158;DHT22;23050;51.776;22.638;2023-01-08T03:23:53;1.60;99.90
37158;DHT22;23050;51.776;22.638;2023-01-08T03:26:25;1.60;99.90
37158;DHT22;23050;51.776;22.638;2023-01-08T03:28:52;1.60;99.90
37158;DHT22;23050;51.776;22.638;2023-01-08T03:31:21;1.70;99.90
37158;DHT22;23050;51.776;22.638;2023-01-08T03:33:48;1.70;99.90
37158;DHT22;23050;51.776;22.638;2023-01-08T03:36:20;1.70;99.90
37158;DHT22;23050;51.776;22.638;2023-01-08T03:38:49;1.70;99.90
37158;DHT22;23050;51.776;22.638;2023-01-08T03:41:20;1.70;99.90
37158;DHT22;23050;51.776;22.638;2023-01-08T03:43:47;1.70;99.90
37158;DHT22;23050;51.776;22.638;2023-01-08T03:46:20;1.70;99.90
37158;DHT22;23050;51.776;22.638;2023-01-08T03:48:47;1.80;99.90
37158;DHT22;23050;51.776;22.638;2023-01-08T03:51:13;1.80;99.90
37158;DHT22;23050;51.776;22.638;2023-01-08T03:53:39;1.80;99.90
37158;DHT22;23050;51.776;22.638;2023-01-08T03:56:05;1.80;99.90
37158;DHT22;23050;51.776;22.638;2023-01-08T03:58:31;1.80;99.90
37158;DHT22;23050;51.776;22.638;2023-01-08T04:00:56;1.80;99.90
37158;DHT22;23050;51.776;22.638;2023-01-08T04:03:22;1.80;99.90
37158;DHT22;23050;51.776;22.638;2023-01-08T04:05:49;1.80;99.90
37158;DHT22;23050;51.776;22.638;2023-01-08T04:08:14;1.80;99.90
37158;DHT22;23050;51.776;22.638;2023-01-08T04:10:40;1.80;99.90
37158;DHT22;23050;51.776;22.638;2023-01-08T04:13:05;1.80;99.90
37158;DHT22;23050;51.776;22.638;2023-01-08T04:15:31;1.80;99.90
37158;DHT22;23050;51.776;22.638;2023-01-08T04:17:57;1.80;99.90
37158;DHT22;23050;51.776;22.638;2023-01-08T04:20:22;1.90;99.90
37158;DHT22;23050;51.776;22.638;2023-01-08T04:22:48;1.90;99.90
37158;DHT22;23050;51.776;22.638;2023-01-08T04:25:13;1.90;99.90
37158;DHT22;23050;51.776;22.638;2023-01-08T04:27:39;1.90;99.90
37158;DHT22;23050;51.776;22.638;2023-01-08T04:30:05;1.80;99.90
37158;DHT22;23050;51.776;22.638;2023-01-08T04:32:31;1.90;99.90
37158;DHT22;23050;51.776;22.638;2023-01-08T04:34:56;1.80;99.90
37158;DHT22;23050;51.776;22.638;2023-01-08T04:37:22;1.80;99.90
37158;DHT22;23050;51.776;22.638;2023-01-08T04:39:47;1.80;99.90
37158;DHT22;23050;51.776;22.638;2023-01-08T04:42:13;1.80;99.90
37158;DHT22;23050;51.776;22.638;2023-01-08T04:44:38;1.80;99.90
37158;DHT22;23050;51.776;22.638;2023-01-08T04:47:04;1.80;99.90
37158;DHT22;23050;51.776;22.638;2023-01-08T04:49:29;1.70;99.90
37158;DHT22;23050;51.776;22.638;2023-01-08T04:51:55;1.80;99.90
37158;DHT22;23050;51.776;22.638;2023-01-08T04:54:20;1.70;99.90
37158;DHT22;23050;51.776;22.638;2023-01-08T04:56:49;1.70;99.90
37158;DHT22;23050;51.776;22.638;2023-01-08T04:59:15;1.70;99.90
37158;DHT22;23050;51.776;22.638;2023-01-08T05:01:41;1.60;99.90
37158;DHT22;23050;51.776;22.638;2023-01-08T05:04:06;1.60;99.90
37158;DHT22;23050;51.776;22.638;2023-01-08T05:06:32;1.60;99.90
37158;DHT22;23050;51.776;22.638;2023-01-08T05:08:58;1.60;99.90
37158;DHT22;23050;51.776;22.638;2023-01-08T05:11:24;1.60;99.90
37158;DHT22;23050;51.776;22.638;2023-01-08T05:13:50;1.50;99.90
37158;DHT22;23050;51.776;22.638;2023-01-08T05:16:16;1.50;99.90
37158;DHT22;23050;51.776;22.638;2023-01-08T05:18:43;1.50;99.90
37158;DHT22;23050;51.776;22.638;2023-01-08T05:21:09;1.50;99.90
37158;DHT22;23050;51.776;22.638;2023-01-08T05:23:35;1.50;99.90
37158;DHT22;23050;51.776;22.638;2023-01-08T05:26:03;1.40;99.90
37158;DHT22;23050;51.776;22.638;2023-01-08T05:28:29;1.50;99.90
37158;DHT22;23050;51.776;22.638;2023-01-08T05:30:56;1.50;99.90
37158;DHT22;23050;51.776;22.638;2023-01-08T05:33:21;1.50;99.90
37158;DHT22;23050;51.776;22.638;2023-01-08T05:35:47;1.50;99.90
37158;DHT22;23050;51.776;22.638;2023-01-08T05:38:13;1.50;99.90
37158;DHT22;23050;51.776;22.638;2023-01-08T05:40:39;1.50;99.90
37158;DHT22;23050;51.776;22.638;2023-01-08T05:43:05;1.50;99.90
37158;DHT22;23050;51.776;22.638;2023-01-08T05:45:33;1.50;99.90
37158;DHT22;23050;51.776;22.638;2023-01-08T05:48:03;1.50;99.90
37158;DHT22;23050;51.776;22.638;2023-01-08T05:50:28;1.50;99.90
37158;DHT22;23050;51.776;22.638;2023-01-08T05:52:54;1.50;99.90
37158;DHT22;23050;51.776;22.638;2023-01-08T05:55:20;1.50;99.90
37158;DHT22;23050;51.776;22.638;2023-01-08T05:57:45;1.50;99.90
37158;DHT22;23050;51.776;22.638;2023-01-08T06:00:11;1.50;99.90
37158;DHT22;23050;51.776;22.638;2023-01-08T06:02:37;1.50;99.90
37158;DHT22;23050;51.776;22.638;2023-01-08T06:05:05;1.50;99.90
37158;DHT22;23050;51.776;22.638;2023-01-08T06:07:30;1.50;99.90
37158;DHT22;23050;51.776;22.638;2023-01-08T06:09:56;1.50;99.90
37158;DHT22;23050;51.776;22.638;2023-01-08T06:12:21;1.50;99.90
37158;DHT22;23050;51.776;22.638;2023-01-08T06:14:47;1.40;99.90
37158;DHT22;23050;51.776;22.638;2023-01-08T06:17:12;1.40;99.90
37158;DHT22;23050;51.776;22.638;2023-01-08T06:19:39;1.40;99.90
37158;DHT22;23050;51.776;22.638;2023-01-08T06:22:04;1.30;99.90
37158;DHT22;23050;51.776;22.638;2023-01-08T06:24:31;1.40;99.90
37158;DHT22;23050;51.776;22.638;2023-01-08T06:26:56;1.40;99.90
37158;DHT22;23050;51.776;22.638;2023-01-08T06:29:22;1.40;99.90
37158;DHT22;23050;51.776;22.638;2023-01-08T06:31:47;1.40;99.90
37158;DHT22;23050;51.776;22.638;2023-01-08T06:34:13;1.40;99.90
37158;DHT22;23050;51.776;22.638;2023-01-08T06:36:38;1.40;99.90
37158;DHT22;23050;51.776;22.638;2023-01-08T06:39:05;1.40;99.90
37158;DHT22;23050;51.776;22.638;2023-01-08T06:41:31;1.40;99.90
37158;DHT22;23050;51.776;22.638;2023-01-08T06:43:56;1.40;99.90
37158;DHT22;23050;51.776;22.638;2023-01-08T06:46:22;1.40;99.90
37158;DHT22;23050;51.776;22.638;2023-01-08T06:48:48;1.40;99.90
37158;DHT22;23050;51.776;22.638;2023-01-08T06:51:13;1.40;99.90
37158;DHT22;23050;51.776;22.638;2023-01-08T06:53:39;1.30;99.90
37158;DHT22;23050;51.776;22.638;2023-01-08T06:56:04;1.30;99.90
37158;DHT22;23050;51.776;22.638;2023-01-08T06:58:33;1.30;99.90
37158;DHT22;23050;51.776;22.638;2023-01-08T07:00:59;1.20;99.90
37158;DHT22;23050;51.776;22.638;2023-01-08T07:03:25;1.20;99.90
37158;DHT22;23050;51.776;22.638;2023-01-08T07:05:50;1.20;99.90
37158;DHT22;23050;51.776;22.638;2023-01-08T07:08:16;1.20;99.90
37158;DHT22;23050;51.776;22.638;2023-01-08T07:10:44;1.10;99.90
37158;DHT22;23050;51.776;22.638;2023-01-08T07:13:10;1.10;99.90
37158;DHT22;23050;51.776;22.638;2023-01-08T07:15:40;1.10;99.90
37158;DHT22;23050;51.776;22.638;2023-01-08T07:18:07;1.10;99.90
37158;DHT22;23050;51.776;22.638;2023-01-08T07:20:34;1.10;99.90
37158;DHT22;23050;51.776;22.638;2023-01-08T07:23:01;1.10;99.90
37158;DHT22;23050;51.776;22.638;2023-01-08T07:25:27;1.10;99.90
37158;DHT22;23050;51.776;22.638;2023-01-08T07:27:52;1.10;99.90
37158;DHT22;23050;51.776;22.638;2023-01-08T07:30:18;1.10;99.90
37158;DHT22;23050;51.776;22.638;2023-01-08T07:32:44;1.10;99.90
37158;DHT22;23050;51.776;22.638;2023-01-08T07:35:09;1.20;99.90
37158;DHT22;23050;51.776;22.638;2023-01-08T07:37:39;1.20;99.90
37158;DHT22;23050;51.776;22.638;2023-01-08T07:40:05;1.30;99.90
37158;DHT22;23050;51.776;22.638;2023-01-08T07:42:31;1.50;99.90
37158;DHT22;23050;51.776;22.638;2023-01-08T07:44:56;1.80;99.90
37158;DHT22;23050;51.776;22.638;2023-01-08T07:47:22;2.00;99.90
37158;DHT22;23050;51.776;22.638;2023-01-08T07:49:47;2.10;99.90
37158;DHT22;23050;51.776;22.638;2023-01-08T07:52:13;2.20;99.90
37158;DHT22;23050;51.776;22.638;2023-01-08T07:54:39;2.40;99.90
37158;DHT22;23050;51.776;22.638;2023-01-08T07:57:04;2.70;99.90
37158;DHT22;23050;51.776;22.638;2023-01-08T07:59:30;2.80;99.90
37158;DHT22;23050;51.776;22.638;2023-01-08T08:01:55;3.20;99.90
37158;DHT22;23050;51.776;22.638;2023-01-08T08:04:21;3.30;99.90
37158;DHT22;23050;51.776;22.638;2023-01-08T08:06:46;3.20;99.90
37158;DHT22;23050;51.776;22.638;2023-01-08T08:09:12;3.00;99.90
37158;DHT22;23050;51.776;22.638;2023-01-08T08:11:37;3.00;99.90
37158;DHT22;23050;51.776;22.638;2023-01-08T08:14:03;2.80;99.90
37158;DHT22;23050;51.776;22.638;2023-01-08T08:16:29;2.80;99.90
37158;DHT22;23050;51.776;22.638;2023-01-08T08:18:57;2.60;99.90
37158;DHT22;23050;51.776;22.638;2023-01-08T08:21:23;2.30;99.90
37158;DHT22;23050;51.776;22.638;2023-01-08T08:23:48;2.10;99.90
37158;DHT22;23050;51.776;22.638;2023-01-08T08:26:14;1.90;99.90
37158;DHT22;23050;51.776;22.638;2023-01-08T08:28:39;1.70;99.90
37158;DHT22;23050;51.776;22.638;2023-01-08T08:31:05;1.60;99.90
37158;DHT22;23050;51.776;22.638;2023-01-08T08:33:31;1.50;99.90
37158;DHT22;23050;51.776;22.638;2023-01-08T08:35:56;1.50;99.90
37158;DHT22;23050;51.776;22.638;2023-01-08T08:38:22;1.40;99.90
37158;DHT22;23050;51.776;22.638;2023-01-08T08:40:49;1.40;99.90
37158;DHT22;23050;51.776;22.638;2023-01-08T08:43:14;1.40;99.90
37158;DHT22;23050;51.776;22.638;2023-01-08T08:45:40;1.40;99.90
37158;DHT22;23050;51.776;22.638;2023-01-08T08:48:07;1.50;99.90
37158;DHT22;23050;51.776;22.638;2023-01-08T08:50:33;1.50;99.90
37158;DHT22;23050;51.776;22.638;2023-01-08T08:53:01;1.50;99.90
37158;DHT22;23050;51.776;22.638;2023-01-08T08:55:27;1.50;99.90
37158;DHT22;23050;51.776;22.638;2023-01-08T08:57:53;1.60;99.90
37158;DHT22;23050;51.776;22.638;2023-01-08T09:00:19;1.60;99.90
37158;DHT22;23050;51.776;22.638;2023-01-08T09:02:45;1.60;99.90
37158;DHT22;23050;51.776;22.638;2023-01-08T09:05:10;1.70;99.90
37158;DHT22;23050;51.776;22.638;2023-01-08T09:07:36;1.80;99.90
37158;DHT22;23050;51.776;22.638;2023-01-08T09:10:02;1.90;99.90
37158;DHT22;23050;51.776;22.638;2023-01-08T09:12:28;1.90;99.90
37158;DHT22;23050;51.776;22.638;2023-01-08T09:14:54;1.90;99.90
37158;DHT22;23050;51.776;22.638;2023-01-08T09:17:22;1.90;99.90
37158;DHT22;23050;51.776;22.638;2023-01-08T09:19:49;1.90;99.90
37158;DHT22;23050;51.776;22.638;2023-01-08T09:22:15;1.90;99.90
37158;DHT22;23050;51.776;22.638;2023-01-08T09:24:40;2.00;99.90
37158;DHT22;23050;51.776;22.638;2023-01-08T09:27:06;2.40;99.90
37158;DHT22;23050;51.776;22.638;2023-01-08T09:29:31;2.40;99.90
37158;DHT22;23050;51.776;22.638;2023-01-08T09:31:57;2.30;99.90
37158;DHT22;23050;51.776;22.638;2023-01-08T09:34:24;2.20;99.90
37158;DHT22;23050;51.776;22.638;2023-01-08T09:36:50;2.00;99.90
37158;DHT22;23050;51.776;22.638;2023-01-08T09:39:16;1.90;99.90
37158;DHT22;23050;51.776;22.638;2023-01-08T09:41:44;1.80;99.90
37158;DHT22;23050;51.776;22.638;2023-01-08T09:44:15;1.70;99.90
37158;DHT22;23050;51.776;22.638;2023-01-08T09:46:41;1.60;99.90
37158;DHT22;23050;51.776;22.638;2023-01-08T09:49:19;1.60;99.90
37158;DHT22;23050;51.776;22.638;2023-01-08T09:51:45;1.50;99.90
37158;DHT22;23050;51.776;22.638;2023-01-08T09:54:15;1.50;99.90
37158;DHT22;23050;51.776;22.638;2023-01-08T09:56:42;1.50;99.90
37158;DHT22;23050;51.776;22.638;2023-01-08T09:59:11;1.50;99.90
37158;DHT22;23050;51.776;22.638;2023-01-08T10:01:38;1.50;99.90
37158;DHT22;23050;51.776;22.638;2023-01-08T10:04:20;1.50;99.90
37158;DHT22;23050;51.776;22.638;2023-01-08T10:06:55;1.40;99.90
37158;DHT22;23050;51.776;22.638;2023-01-08T10:09:27;1.40;99.90
37158;DHT22;23050;51.776;22.638;2023-01-08T10:11:55;1.30;99.90
37158;DHT22;23050;51.776;22.638;2023-01-08T10:14:29;1.30;99.90
37158;DHT22;23050;51.776;22.638;2023-01-08T10:16:59;1.30;99.90
37158;DHT22;23050;51.776;22.638;2023-01-08T10:19:25;1.20;99.90
37158;DHT22;23050;51.776;22.638;2023-01-08T10:21:52;1.20;99.90
37158;DHT22;23050;51.776;22.638;2023-01-08T10:24:33;1.20;99.90
37158;DHT22;23050;51.776;22.638;2023-01-08T10:27:13;1.40;99.90
37158;DHT22;23050;51.776;22.638;2023-01-08T10:29:40;1.40;99.90
37158;DHT22;23050;51.776;22.638;2023-01-08T10:32:28;1.30;99.90
37158;DHT22;23050;51.776;22.638;2023-01-08T10:34:57;1.20;99.90
37158;DHT22;23050;51.776;22.638;2023-01-08T10:37:36;1.30;99.90
37158;DHT22;23050;51.776;22.638;2023-01-08T10:40:40;1.30;99.90
37158;DHT22;23050;51.776;22.638;2023-01-08T10:43:18;1.30;99.90
37158;DHT22;23050;51.776;22.638;2023-01-08T10:46:06;1.30;99.90
37158;DHT22;23050;51.776;22.638;2023-01-08T10:48:39;1.30;99.90
37158;DHT22;23050;51.776;22.638;2023-01-08T10:51:15;1.20;99.90
37158;DHT22;23050;51.776;22.638;2023-01-08T10:53:41;1.20;99.90
37158;DHT22;23050;51.776;22.638;2023-01-08T10:56:19;1.20;99.90
37158;DHT22;23050;51.776;22.638;2023-01-08T10:58:55;1.20;99.90
37158;DHT22;23050;51.776;22.638;2023-01-08T11:01:26;1.20;99.90
37158;DHT22;23050;51.776;22.638;2023-01-08T11:04:01;1.20;99.90
37158;DHT22;23050;51.776;22.638;2023-01-08T11:06:32;1.20;99.90
37158;DHT22;23050;51.776;22.638;2023-01-08T11:09:00;1.20;99.90
37158;DHT22;23050;51.776;22.638;2023-01-08T11:11:35;1.30;99.90
37158;DHT22;23050;51.776;22.638;2023-01-08T11:14:19;1.20;99.90
37158;DHT22;23050;51.776;22.638;2023-01-08T11:16:47;1.20;99.90
37158;DHT22;23050;51.776;22.638;2023-01-08T11:19:17;1.30;99.90
37158;DHT22;23050;51.776;22.638;2023-01-08T11:21:54;1.20;99.90
37158;DHT22;23050;51.776;22.638;2023-01-08T11:24:24;1.20;99.90
37158;DHT22;23050;51.776;22.638;2023-01-08T11:35:25;1.10;99.90
37158;DHT22;23050;51.776;22.638;2023-01-08T11:37:55;1.20;99.90
37158;DHT22;23050;51.776;22.638;2023-01-08T11:40:38;1.20;99.90
37158;DHT22;23050;51.776;22.638;2023-01-08T11:45:50;1.20;99.90
37158;DHT22;23050;51.776;22.638;2023-01-08T11:51:42;1.20;99.90
37158;DHT22;23050;51.776;22.638;2023-01-08T11:57:12;1.30;99.90
37158;DHT22;23050;51.776;22.638;2023-01-08T12:02:54;1.30;99.90
37158;DHT22;23050;51.776;22.638;2023-01-08T12:10:53;1.20;99.90
37158;DHT22;23050;51.776;22.638;2023-01-08T12:19:13;1.20;99.90
37158;DHT22;23050;51.776;22.638;2023-01-08T12:27:43;1.20;99.90
37158;DHT22;23050;51.776;22.638;2023-01-08T12:33:00;1.20;99.90
37158;DHT22;23050;51.776;22.638;2023-01-08T12:35:35;1.20;99.90
37158;DHT22;23050;51.776;22.638;2023-01-08T12:38:12;1.20;99.90
37158;DHT22;23050;51.776;22.638;2023-01-08T12:40:44;1.20;99.90
37158;DHT22;23050;51.776;22.638;2023-01-08T12:43:20;1.20;99.90
37158;DHT22;23050;51.776;22.638;2023-01-08T12:45:50;1.30;99.90
37158;DHT22;23050;51.776;22.638;2023-01-08T12:48:22;1.20;99.90
37158;DHT22;23050;51.776;22.638;2023-01-08T12:51:16;1.30;99.90
37158;DHT22;23050;51.776;22.638;2023-01-08T12:54:49;1.20;99.90
37158;DHT22;23050;51.776;22.638;2023-01-08T12:56:49;1.20;99.90
37158;DHT22;23050;51.776;22.638;2023-01-08T13:07:46;1.20;99.90
37158;DHT22;23050;51.776;22.638;2023-01-08T13:10:28;1.20;99.90
37158;DHT22;23050;51.776;22.638;2023-01-08T13:12:57;1.20;99.90
37158;DHT22;23050;51.776;22.638;2023-01-08T13:15:27;1.20;99.90
37158;DHT22;23050;51.776;22.638;2023-01-08T13:17:56;1.20;99.90
37158;DHT22;23050;51.776;22.638;2023-01-08T13:20:29;1.20;99.90
37158;DHT22;23050;51.776;22.638;2023-01-08T13:23:00;1.20;99.90
37158;DHT22;23050;51.776;22.638;2023-01-08T13:25:28;1.30;99.90
37158;DHT22;23050;51.776;22.638;2023-01-08T13:27:54;1.30;99.90
37158;DHT22;23050;51.776;22.638;2023-01-08T13:32:55;1.30;99.90
37158;DHT22;23050;51.776;22.638;2023-01-08T13:35:28;1.30;99.90
37158;DHT22;23050;51.776;22.638;2023-01-08T13:38:15;1.30;99.90
37158;DHT22;23050;51.776;22.638;2023-01-08T13:43:16;1.30;99.90
37158;DHT22;23050;51.776;22.638;2023-01-08T13:46:07;1.20;99.90
37158;DHT22;23050;51.776;22.638;2023-01-08T13:48:39;1.30;99.90
37158;DHT22;23050;51.776;22.638;2023-01-08T13:53:54;1.30;99.90
37158;DHT22;23050;51.776;22.638;2023-01-08T13:56:20;1.30;99.90
37158;DHT22;23050;51.776;22.638;2023-01-08T13:58:52;1.30;99.90
37158;DHT22;23050;51.776;22.638;2023-01-08T14:01:18;1.30;99.90
37158;DHT22;23050;51.776;22.638;2023-01-08T14:03:46;1.30;99.90
37158;DHT22;23050;51.776;22.638;2023-01-08T14:06:15;1.30;99.90
37158;DHT22;23050;51.776;22.638;2023-01-08T14:09:01;1.30;99.90
37158;DHT22;23050;51.776;22.638;2023-01-08T14:11:41;1.30;99.90
37158;DHT22;23050;51.776;22.638;2023-01-08T14:14:16;1.30;99.90
37158;DHT22;23050;51.776;22.638;2023-01-08T14:16:42;1.30;99.90
37158;DHT22;23050;51.776;22.638;2023-01-08T14:19:14;1.30;99.90
37158;DHT22;23050;51.776;22.638;2023-01-08T14:21:46;1.30;99.90
37158;DHT22;23050;51.776;22.638;2023-01-08T14:24:14;1.30;99.90
37158;DHT22;23050;51.776;22.638;2023-01-08T14:26:40;1.30;99.90
37158;DHT22;23050;51.776;22.638;2023-01-08T14:29:14;1.30;99.90
37158;DHT22;23050;51.776;22.638;2023-01-08T14:31:54;1.30;99.90
37158;DHT22;23050;51.776;22.638;2023-01-08T14:34:23;1.30;99.90
37158;DHT22;23050;51.776;22.638;2023-01-08T14:36:50;1.30;99.90
37158;DHT22;23050;51.776;22.638;2023-01-08T14:39:24;1.30;99.90
37158;DHT22;23050;51.776;22.638;2023-01-08T14:41:52;1.30;99.90
37158;DHT22;23050;51.776;22.638;2023-01-08T14:44:37;1.30;99.90
37158;DHT22;23050;51.776;22.638;2023-01-08T14:47:04;1.30;99.90
37158;DHT22;23050;51.776;22.638;2023-01-08T14:49:33;1.30;99.90
37158;DHT22;23050;51.776;22.638;2023-01-08T14:52:09;1.30;99.90
37158;DHT22;23050;51.776;22.638;2023-01-08T14:54:36;1.30;99.90
37158;DHT22;23050;51.776;22.638;2023-01-08T14:57:02;1.40;99.90
37158;DHT22;23050;51.776;22.638;2023-01-08T14:59:31;1.40;99.90
37158;DHT22;23050;51.776;22.638;2023-01-08T15:02:00;1.40;99.90
37158;DHT22;23050;51.776;22.638;2023-01-08T15:04:27;1.40;99.90
37158;DHT22;23050;51.776;22.638;2023-01-08T15:07:15;1.40;99.90
37158;DHT22;23050;51.776;22.638;2023-01-08T15:09:54;1.40;99.90
37158;DHT22;23050;51.776;22.638;2023-01-08T15:12:25;1.40;99.90
37158;DHT22;23050;51.776;22.638;2023-01-08T15:14:51;1.40;99.90
37158;DHT22;23050;51.776;22.638;2023-01-08T15:17:21;1.40;99.90
37158;DHT22;23050;51.776;22.638;2023-01-08T15:19:50;1.40;99.90
37158;DHT22;23050;51.776;22.638;2023-01-08T15:22:21;1.40;99.90
37158;DHT22;23050;51.776;22.638;2023-01-08T15:24:59;1.40;99.90
37158;DHT22;23050;51.776;22.638;2023-01-08T15:27:26;1.40;99.90
37158;DHT22;23050;51.776;22.638;2023-01-08T15:29:55;1.40;99.90
37158;DHT22;23050;51.776;22.638;2023-01-08T15:32:28;1.50;99.90
37158;DHT22;23050;51.776;22.638;2023-01-08T15:34:55;1.40;99.90
37158;DHT22;23050;51.776;22.638;2023-01-08T15:37:20;1.50;99.90
37158;DHT22;23050;51.776;22.638;2023-01-08T15:39:46;1.50;99.90
37158;DHT22;23050;51.776;22.638;2023-01-08T15:42:31;1.50;99.90
37158;DHT22;23050;51.776;22.638;2023-01-08T15:45:25;1.50;99.90
37158;DHT22;23050;51.776;22.638;2023-01-08T15:47:55;1.50;99.90
37158;DHT22;23050;51.776;22.638;2023-01-08T15:50:21;1.50;99.90
37158;DHT22;23050;51.776;22.638;2023-01-08T15:52:47;1.50;99.90
37158;DHT22;23050;51.776;22.638;2023-01-08T15:55:21;1.50;99.90
37158;DHT22;23050;51.776;22.638;2023-01-08T15:57:48;1.50;99.90
37158;DHT22;23050;51.776;22.638;2023-01-08T16:00:15;1.50;99.90
37158;DHT22;23050;51.776;22.638;2023-01-08T16:02:46;1.50;99.90
37158;DHT22;23050;51.776;22.638;2023-01-08T16:05:17;1.50;99.90
37158;DHT22;23050;51.776;22.638;2023-01-08T16:07:44;1.50;99.90
37158;DHT22;23050;51.776;22.638;2023-01-08T16:10:13;1.50;99.90
37158;DHT22;23050;51.776;22.638;2023-01-08T16:12:39;1.50;99.90
37158;DHT22;23050;51.776;22.638;2023-01-08T16:15:05;1.50;99.90
37158;DHT22;23050;51.776;22.638;2023-01-08T16:17:33;1.50;99.90
37158;DHT22;23050;51.776;22.638;2023-01-08T16:19:59;1.50;99.90
37158;DHT22;23050;51.776;22.638;2023-01-08T16:22:25;1.50;99.90
37158;DHT22;23050;51.776;22.638;2023-01-08T16:24:51;1.60;99.90
37158;DHT22;23050;51.776;22.638;2023-01-08T16:27:16;1.60;99.90
37158;DHT22;23050;51.776;22.638;2023-01-08T16:29:42;1.60;99.90
37158;DHT22;23050;51.776;22.638;2023-01-08T16:32:07;1.60;99.90
37158;DHT22;23050;51.776;22.638;2023-01-08T16:34:33;1.60;99.90
37158;DHT22;23050;51.776;22.638;2023-01-08T16:36:59;1.60;99.90
37158;DHT22;23050;51.776;22.638;2023-01-08T16:39:24;1.60;99.90
37158;DHT22;23050;51.776;22.638;2023-01-08T16:41:51;1.60;99.90
37158;DHT22;23050;51.776;22.638;2023-01-08T16:44:18;1.60;99.90
37158;DHT22;23050;51.776;22.638;2023-01-08T16:46:45;1.60;99.90
37158;DHT22;23050;51.776;22.638;2023-01-08T16:49:11;1.60;99.90
37158;DHT22;23050;51.776;22.638;2023-01-08T16:51:36;1.60;99.90
37158;DHT22;23050;51.776;22.638;2023-01-08T16:54:02;1.60;99.90